Time;durP1;ratioP1;P1;durP2;ratioP2;P2;SDS_P1;SDS_P2;PMS_P1;PMS_P2;Temp;Humidity;BMP_temperature;BMP_pressure;BME280_temperature;BME280_humidity;BME280_pressure;Samples;Min_cycle;Max_cycle;Signal;HPM_P1;HPM_P2
2023/11/22 00:00:59;;;;;;;;;;;5.70;99.90;;;;;;6682022;89;20036;-83
2023/11/22 00:10:59;;;;;;;;;;;5.80;99.90;;;;;;6681395;88;20041;-81
2023/11/22 00:21:00;;;;;;;;;;;6.00;99.90;;;;;;6681824;89;20103;-81
2023/11/22 00:31:00;;;;;;;;;;;6.00;99.90;;;;;;6662746;89;20053;-80
2023/11/22 00:41:02;;;;;;;;;;;5.90;99.90;;;;;;6680697;77;20088;-78
2023/11/22 00:51:08;;;;;;;;;;;6.00;99.90;;;;;;6659509;89;20079;-79
2023/11/22 01:01:08;;;;;;;;;;;6.00;99.90;;;;;;6660291;89;20081;-79
2023/11/22 01:11:09;;;;;;;;;;;6.10;99.90;;;;;;6658605;89;20129;-79
2023/11/22 01:21:10;;;;;;;;;;;6.10;99.90;;;;;;6659528;89;20074;-80
2023/11/22 01:31:12;;;;;;;;;;;6.10;99.90;;;;;;6662453;89;20080;-79
2023/11/22 01:41:13;;;;;;;;;;;6.10;99.90;;;;;;6661424;89;20209;-79
2023/11/22 01:51:14;;;;;;;;;;;6.10;99.90;;;;;;6660841;89;20046;-79
2023/11/22 02:01:14;;;;;;;;;;;6.10;99.90;;;;;;6660880;89;20076;-79
2023/11/22 02:11:17;;;;;;;;;;;6.10;99.90;;;;;;6661400;89;20130;-79
2023/11/22 02:21:17;;;;;;;;;;;6.00;99.90;;;;;;6664208;89;20063;-79
2023/11/22 02:31:18;;;;;;;;;;;6.00;99.90;;;;;;6665629;89;20113;-79
2023/11/22 02:41:18;;;;;;;;;;;6.00;99.90;;;;;;6661936;89;20170;-79
2023/11/22 02:51:19;;;;;;;;;;;5.90;99.90;;;;;;6658928;89;20062;-79
2023/11/22 03:01:19;;;;;;;;;;;5.90;99.90;;;;;;6660338;89;20069;-79
2023/11/22 03:11:21;;;;;;;;;;;5.90;99.90;;;;;;6662382;89;20075;-79
2023/11/22 03:21:21;;;;;;;;;;;5.90;99.90;;;;;;6659540;89;20089;-79
2023/11/22 03:31:22;;;;;;;;;;;5.90;99.90;;;;;;6666701;89;20088;-79
2023/11/22 03:41:24;;;;;;;;;;;5.80;99.90;;;;;;6665326;89;20093;-79
2023/11/22 03:51:25;;;;;;;;;;;5.90;99.90;;;;;;6666603;89;20060;-80
2023/11/22 04:01:25;;;;;;;;;;;5.90;99.90;;;;;;6662671;89;20069;-80
2023/11/22 04:11:28;;;;;;;;;;;6.00;99.90;;;;;;6658722;89;20053;-79
2023/11/22 04:21:29;;;;;;;;;;;5.90;99.90;;;;;;6663972;89;20053;-79
2023/11/22 04:31:30;;;;;;;;;;;5.90;99.90;;;;;;6659669;89;20058;-79
2023/11/22 04:41:30;;;;;;;;;;;5.90;99.90;;;;;;6662306;89;20095;-79
2023/11/22 04:51:32;;;;;;;;;;;5.70;99.90;;;;;;6661443;89;20208;-79
2023/11/22 05:01:33;;;;;;;;;;;5.70;99.90;;;;;;6659078;89;20738;-77
2023/11/22 05:11:33;;;;;;;;;;;5.40;99.90;;;;;;6664110;89;20069;-78
2023/11/22 05:21:33;;;;;;;;;;;5.20;99.90;;;;;;6656866;89;20087;-79
2023/11/22 05:31:34;;;;;;;;;;;5.00;99.90;;;;;;6664606;89;20080;-79
2023/11/22 05:41:35;;;;;;;;;;;5.00;99.90;;;;;;6669924;89;20261;-79
2023/11/22 05:51:37;;;;;;;;;;;5.20;99.90;;;;;;6670123;89;20056;-79
2023/11/22 06:01:37;;;;;;;;;;;5.00;99.90;;;;;;6665723;89;20543;-80
2023/11/22 06:11:38;;;;;;;;;;;4.90;99.90;;;;;;6663533;89;20083;-79
2023/11/22 06:21:38;;;;;;;;;;;4.70;99.90;;;;;;6660435;89;20057;-78
2023/11/22 06:31:40;;;;;;;;;;;4.40;99.90;;;;;;6656566;89;20080;-78
2023/11/22 06:41:41;;;;;;;;;;;4.20;99.90;;;;;;6658037;89;20847;-80
2023/11/22 06:51:41;;;;;;;;;;;3.90;99.90;;;;;;6657888;89;20056;-79
2023/11/22 07:01:42;;;;;;;;;;;3.60;99.90;;;;;;6659569;89;20144;-78
2023/11/22 07:11:44;;;;;;;;;;;3.50;99.90;;;;;;6657853;89;20097;-78
2023/11/22 07:21:44;;;;;;;;;;;3.30;99.90;;;;;;6660687;89;20049;-79
2023/11/22 07:31:45;;;;;;;;;;;3.30;99.90;;;;;;6656620;89;20210;-78
2023/11/22 07:41:48;;;;;;;;;;;3.20;99.90;;;;;;6656157;89;20136;-78
2023/11/22 07:51:52;;;;;;;;;;;3.20;99.90;;;;;;6651750;89;20065;-78
2023/11/22 08:01:53;;;;;;;;;;;3.30;99.90;;;;;;6658651;89;20702;-78
2023/11/22 08:11:54;;;;;;;;;;;3.70;99.90;;;;;;6656699;89;20074;-78
2023/11/22 08:21:55;;;;;;;;;;;4.20;99.90;;;;;;6659932;89;20052;-78
2023/11/22 08:31:55;;;;;;;;;;;4.60;99.90;;;;;;6655759;89;20181;-79
2023/11/22 08:41:56;;;;;;;;;;;5.10;99.90;;;;;;6663418;89;20112;-77
2023/11/22 08:51:56;;;;;;;;;;;5.70;99.90;;;;;;6663339;89;20065;-78
2023/11/22 09:01:57;;;;;;;;;;;5.90;99.90;;;;;;6659181;89;20092;-78
2023/11/22 09:11:58;;;;;;;;;;;6.70;99.90;;;;;;6659550;89;20077;-78
2023/11/22 09:21:59;;;;;;;;;;;7.40;99.90;;;;;;6656890;89;20065;-78
2023/11/22 09:32:00;;;;;;;;;;;8.10;99.90;;;;;;6656682;89;20078;-78
2023/11/22 09:42:02;;;;;;;;;;;8.50;99.90;;;;;;6656683;89;20179;-77
2023/11/22 09:52:03;;;;;;;;;;;9.00;99.90;;;;;;6655159;89;20340;-78
2023/11/22 10:02:06;;;;;;;;;;;9.90;99.90;;;;;;6657573;89;20073;-78
2023/11/22 10:12:07;;;;;;;;;;;9.60;99.90;;;;;;6656650;89;20101;-78
2023/11/22 10:22:08;;;;;;;;;;;9.50;99.90;;;;;;6659203;89;20061;-78
2023/11/22 10:32:08;;;;;;;;;;;10.10;99.90;;;;;;6665998;89;20069;-79
2023/11/22 10:42:09;;;;;;;;;;;8.60;99.90;;;;;;6662507;89;20077;-78
2023/11/22 10:52:12;;;;;;;;;;;9.10;99.90;;;;;;6663217;89;20053;-79
2023/11/22 11:02:15;;;;;;;;;;;10.40;99.90;;;;;;6662811;89;20549;-79
2023/11/22 11:12:17;;;;;;;;;;;11.00;99.90;;;;;;6664074;89;20482;-79
2023/11/22 11:22:19;;;;;;;;;;;10.60;99.50;;;;;;6668537;89;20106;-78
2023/11/22 11:32:31;;;;;;;;;;;10.50;99.10;;;;;;6663779;89;20075;-79
2023/11/22 11:42:32;;;;;;;;;;;11.00;98.00;;;;;;6659271;89;20599;-78
2023/11/22 11:52:33;;;;;;;;;;;10.80;98.60;;;;;;6663330;89;20081;-79
2023/11/22 12:02:33;;;;;;;;;;;10.70;99.50;;;;;;6662713;89;20100;-79
2023/11/22 12:12:34;;;;;;;;;;;10.80;99.00;;;;;;6669163;89;20683;-79
2023/11/22 12:22:34;;;;;;;;;;;11.30;98.40;;;;;;6664466;89;20176;-80
2023/11/22 12:32:38;;;;;;;;;;;10.60;98.70;;;;;;6658871;89;20099;-79
2023/11/22 12:52:42;;;;;;;;;;;10.60;97.70;;;;;;6658812;89;20104;-80
2023/11/22 13:02:42;;;;;;;;;;;11.90;96.00;;;;;;6656154;89;20101;-80
2023/11/22 13:12:46;;;;;;;;;;;12.80;94.60;;;;;;6655119;89;20107;-78
2023/11/22 13:22:46;;;;;;;;;;;13.00;94.20;;;;;;6654778;89;20054;-78
2023/11/22 13:32:47;;;;;;;;;;;11.70;94.50;;;;;;6656330;89;20515;-77
2023/11/22 13:42:50;;;;;;;;;;;11.10;95.80;;;;;;6667738;89;20134;-80
2023/11/22 13:52:51;;;;;;;;;;;11.60;93.20;;;;;;6644952;89;20054;-78
2023/11/22 14:02:55;;;;;;;;;;;12.10;93.00;;;;;;6645546;89;20110;-79
2023/11/22 14:13:00;;;;;;;;;;;11.70;93.60;;;;;;6643644;89;20071;-78
2023/11/22 14:23:00;;;;;;;;;;;11.80;93.80;;;;;;6645702;89;20062;-79
2023/11/22 14:33:06;;;;;;;;;;;11.20;93.50;;;;;;6657878;89;20064;-78
2023/11/22 14:43:07;;;;;;;;;;;10.00;94.50;;;;;;6660081;89;20065;-78
2023/11/22 14:53:07;;;;;;;;;;;9.40;94.80;;;;;;6656862;89;20542;-80
2023/11/22 15:03:08;;;;;;;;;;;8.40;96.50;;;;;;6662009;89;20079;-79
2023/11/22 15:13:09;;;;;;;;;;;7.90;98.90;;;;;;6668870;89;20597;-79
2023/11/22 15:23:10;;;;;;;;;;;7.50;99.60;;;;;;6660410;89;20201;-80
2023/11/22 15:33:10;;;;;;;;;;;7.20;99.90;;;;;;6661404;89;20052;-80
2023/11/22 15:43:12;;;;;;;;;;;7.00;99.90;;;;;;6658880;89;20573;-79
2023/11/22 15:53:15;;;;;;;;;;;6.80;99.90;;;;;;6659305;89;20104;-79
2023/11/22 16:03:17;;;;;;;;;;;6.50;99.90;;;;;;6654916;89;20157;-79
2023/11/22 16:13:18;;;;;;;;;;;6.40;99.90;;;;;;6658893;89;20084;-80
2023/11/22 16:23:18;;;;;;;;;;;6.20;99.90;;;;;;6662190;89;20061;-79
2023/11/22 16:33:20;;;;;;;;;;;6.20;99.90;;;;;;6659381;89;20652;-79
2023/11/22 16:43:21;;;;;;;;;;;6.10;99.90;;;;;;6657827;89;20092;-80
2023/11/22 16:53:22;;;;;;;;;;;5.90;99.90;;;;;;6656315;89;20072;-80
2023/11/22 17:03:22;;;;;;;;;;;5.80;99.90;;;;;;6657952;89;20081;-80
2023/11/22 17:13:23;;;;;;;;;;;5.80;99.90;;;;;;6662489;89;20082;-79
2023/11/22 17:23:24;;;;;;;;;;;5.60;99.90;;;;;;6669646;89;20056;-79
2023/11/22 17:33:26;;;;;;;;;;;5.50;99.90;;;;;;6665435;89;20075;-79
2023/11/22 17:43:27;;;;;;;;;;;5.50;99.90;;;;;;6667595;88;20066;-81
2023/11/22 17:53:28;;;;;;;;;;;5.50;99.90;;;;;;6683923;88;20075;-80
2023/11/22 18:03:28;;;;;;;;;;;5.30;99.90;;;;;;6679043;88;20691;-79
2023/11/22 18:13:29;;;;;;;;;;;5.20;99.90;;;;;;6680804;88;20041;-79
2023/11/22 18:23:30;;;;;;;;;;;5.10;99.90;;;;;;6683345;88;20079;-77
2023/11/22 18:33:30;;;;;;;;;;;5.10;99.90;;;;;;6680342;88;20113;-79
2023/11/22 18:43:31;;;;;;;;;;;5.20;99.90;;;;;;6671948;78;20776;-80
2023/11/22 18:53:32;;;;;;;;;;;5.20;99.90;;;;;;6666922;89;20576;-79
2023/11/22 19:03:33;;;;;;;;;;;5.20;99.90;;;;;;6638368;89;20178;-80
2023/11/22 19:13:34;;;;;;;;;;;5.10;99.90;;;;;;6660908;89;20074;-81
2023/11/22 19:23:34;;;;;;;;;;;5.20;99.90;;;;;;6664093;89;20054;-78
2023/11/22 19:33:35;;;;;;;;;;;5.10;99.90;;;;;;6639697;89;20151;-80
2023/11/22 19:43:36;;;;;;;;;;;4.90;99.90;;;;;;6648839;89;20058;-80
2023/11/22 19:53:37;;;;;;;;;;;4.80;99.90;;;;;;6645277;89;20070;-81
2023/11/22 20:03:37;;;;;;;;;;;4.80;99.90;;;;;;6647415;89;20070;-81
2023/11/22 20:13:38;;;;;;;;;;;4.70;99.90;;;;;;6673378;89;20063;-80
2023/11/22 20:23:38;;;;;;;;;;;4.50;99.90;;;;;;6673411;89;20536;-80
2023/11/22 20:33:38;;;;;;;;;;;4.50;99.90;;;;;;6652621;89;20075;-81
2023/11/22 20:43:39;;;;;;;;;;;4.50;99.90;;;;;;6647217;89;20095;-81
2023/11/22 20:53:39;;;;;;;;;;;4.50;99.90;;;;;;6672429;89;20503;-81
2023/11/22 21:03:40;;;;;;;;;;;4.30;99.90;;;;;;6668242;89;20057;-79
2023/11/22 21:13:41;;;;;;;;;;;4.30;99.90;;;;;;6670365;89;20081;-79
2023/11/22 21:23:42;;;;;;;;;;;4.50;99.90;;;;;;6668254;89;20103;-80
2023/11/22 21:33:42;;;;;;;;;;;4.50;99.90;;;;;;6658490;89;20082;-80
2023/11/22 21:43:43;;;;;;;;;;;4.60;99.90;;;;;;6663485;89;20213;-80
2023/11/22 21:53:43;;;;;;;;;;;4.50;99.90;;;;;;6664608;89;20086;-79
2023/11/22 22:03:44;;;;;;;;;;;4.40;99.90;;;;;;6664660;89;20095;-79
2023/11/22 22:13:44;;;;;;;;;;;4.40;99.90;;;;;;6661235;89;20084;-79
2023/11/22 22:23:44;;;;;;;;;;;4.50;99.90;;;;;;6670665;89;20620;-79
2023/11/22 22:33:45;;;;;;;;;;;4.40;99.90;;;;;;6671960;89;20069;-79
2023/11/22 22:43:46;;;;;;;;;;;4.50;99.90;;;;;;6659833;89;20075;-80
2023/11/22 22:53:49;;;;;;;;;;;4.40;99.90;;;;;;6669042;89;20471;-79
2023/11/22 23:03:50;;;;;;;;;;;4.40;99.90;;;;;;6676829;89;20088;-79
2023/11/22 23:13:50;;;;;;;;;;;4.20;99.90;;;;;;6663466;89;20064;-80
2023/11/22 23:23:51;;;;;;;;;;;4.10;99.90;;;;;;6673792;89;20083;-80
2023/11/22 23:33:53;;;;;;;;;;;4.00;99.90;;;;;;6666827;89;20125;-80
2023/11/22 23:43:54;;;;;;;;;;;3.90;99.90;;;;;;6668295;89;20145;-80
2023/11/22 23:53:54;;;;;;;;;;;4.00;99.90;;;;;;6667683;89;20067;-79
